Time;durP1;ratioP1;P1;durP2;ratioP2;P2;SDS_P1;SDS_P2;PMS_P1;PMS_P2;Temp;Humidity;BMP_temperature;BMP_pressure;BME280_temperature;BME280_humidity;BME280_pressure;Samples;Min_cycle;Max_cycle;Signal;HPM_P1;HPM_P2
2023/04/01 00:01:05;;;;;;;16.60;4.03;;;4.60;99.90;3.70;98558;;;;585730;241;24130;-83
2023/04/01 00:03:36;;;;;;;15.17;4.33;;;4.60;99.90;3.60;98556;;;;585933;241;24104;-83
2023/04/01 00:06:04;;;;;;;33.03;5.60;;;4.50;99.90;3.60;98556;;;;591159;239;24047;-84
2023/04/01 00:08:29;;;;;;;32.43;7.63;;;4.40;99.90;3.50;98538;;;;597088;236;25069;-81
2023/04/01 00:10:57;;;;;;;70.37;9.27;;;4.40;99.90;3.40;98543;;;;596751;236;24044;-81
2023/04/01 00:13:27;;;;;;;50.67;8.70;;;4.30;99.90;3.40;98547;;;;596574;236;24084;-79
2023/04/01 00:15:52;;;;;;;73.07;8.73;;;4.30;99.90;3.30;98550;;;;596432;236;24064;-79
2023/04/01 00:18:20;;;;;;;116.83;10.43;;;4.20;99.90;3.20;98544;;;;606141;236;24035;-81
2023/04/01 00:20:48;;;;;;;85.10;9.83;;;4.10;99.90;3.20;98543;;;;596782;236;24044;-80
2023/04/01 00:23:19;;;;;;;74.93;10.23;;;4.10;99.90;3.10;98552;;;;597031;236;24056;-76
2023/04/01 00:25:48;;;;;;;93.77;8.60;;;4.00;99.90;3.10;98548;;;;585762;241;24114;-80
2023/04/01 00:28:16;;;;;;;90.70;9.50;;;4.00;99.90;3.10;98550;;;;604804;236;24064;-80
2023/04/01 00:30:43;;;;;;;132.57;9.60;;;4.00;99.90;3.10;98556;;;;594967;241;24070;-78
2023/04/01 00:33:08;;;;;;;106.50;9.50;;;4.00;99.90;3.10;98544;;;;602568;236;24066;-76
2023/04/01 00:35:39;;;;;;;106.03;12.53;;;3.90;99.90;3.00;98558;;;;591245;239;24028;-78
2023/04/01 00:38:04;;;;;;;91.37;10.00;;;3.90;99.90;3.00;98558;;;;585247;241;24102;-78
2023/04/01 00:40:32;;;;;;;122.53;11.50;;;3.90;99.90;3.00;98561;;;;587072;240;24051;-78
2023/04/01 00:42:59;;;;;;;79.50;9.23;;;3.90;99.90;3.00;98566;;;;587137;240;24070;-79
2023/04/01 00:45:37;;;;;;;85.00;10.27;;;3.90;99.90;3.00;98551;;;;596065;240;24074;-78
2023/04/01 00:48:06;;;;;;;78.70;12.13;;;3.80;99.90;3.00;98553;;;;586976;237;24110;-79
2023/04/01 00:50:34;;;;;;;131.53;13.23;;;3.90;99.90;3.00;98570;;;;597461;236;24117;-81
2023/04/01 00:53:02;;;;;;;90.97;11.27;;;3.90;99.90;3.00;98559;;;;586387;241;24074;-77
2023/04/01 00:55:30;;;;;;;105.17;11.47;;;3.80;99.90;3.00;98544;;;;597548;236;24068;-79
2023/04/01 00:58:02;;;;;;;74.93;10.60;;;3.80;99.90;2.90;98550;;;;606694;236;24041;-79
2023/04/01 01:00:27;;;;;;;98.73;15.13;;;3.80;99.90;2.90;98549;;;;606292;236;24044;-78
2023/04/01 01:02:55;;;;;;;103.20;12.90;;;3.80;99.90;2.90;98541;;;;606788;232;24034;-78
2023/04/01 01:05:23;;;;;;;94.67;13.33;;;3.80;99.90;2.90;98546;;;;597280;236;24025;-76
2023/04/01 01:08:18;;;;;;;119.43;15.53;;;3.80;99.90;2.90;98542;;;;596472;236;24041;-77
2023/04/01 01:10:48;;;;;;;105.13;13.23;;;3.80;99.90;2.90;98547;;;;597294;236;24041;-77
2023/04/01 01:13:21;;;;;;;145.80;21.12;;;3.80;99.90;2.90;98549;;;;601162;236;35097;-79
2023/04/01 01:15:51;;;;;;;79.80;11.80;;;3.80;99.90;3.00;98543;;;;600999;236;35080;-77
2023/04/01 01:18:34;;;;;;;13.50;6.33;;;3.90;99.90;3.00;98542;;;;606063;236;24047;-79
2023/04/01 01:21:42;;;;;;;14.37;5.40;;;3.90;99.90;3.00;98544;;;;605909;236;24058;-78
2023/04/01 01:24:40;;;;;;;17.93;7.13;;;3.90;99.90;3.10;98557;;;;597039;236;24057;-78
2023/04/01 01:27:14;;;;;;;33.10;12.10;;;3.90;99.90;3.10;98548;;;;605888;236;24041;-81
2023/04/01 01:30:18;;;;;;;33.73;12.87;;;4.00;99.90;3.10;98546;;;;596643;236;24067;-81
2023/04/01 01:33:17;;;;;;;30.43;14.73;;;4.00;99.90;3.10;98558;;;;606516;236;24070;-77
2023/04/01 01:35:42;;;;;;;35.10;15.43;;;4.00;99.90;3.10;98551;;;;606327;236;24056;-80
2023/04/01 01:38:12;;;;;;;23.30;14.53;;;4.00;99.90;3.10;98556;;;;596795;236;24052;-78
2023/04/01 01:40:40;;;;;;;30.60;15.17;;;4.00;99.90;3.10;98555;;;;596780;236;24036;-78
2023/04/01 01:43:08;;;;;;;27.13;15.83;;;4.00;99.90;3.10;98553;;;;606381;233;24100;-77
2023/04/01 01:45:36;;;;;;;27.57;16.27;;;4.00;99.90;3.10;98562;;;;606430;236;24031;-81
2023/04/01 01:48:04;;;;;;;34.87;16.67;;;4.00;99.90;3.20;98568;;;;606330;233;24040;-77
2023/04/01 01:50:32;;;;;;;23.37;15.70;;;4.00;99.90;3.20;98564;;;;606279;236;25079;-76
2023/04/01 01:53:05;;;;;;;25.33;15.67;;;4.10;99.90;3.20;98554;;;;598473;236;24054;-80
2023/04/01 01:55:38;;;;;;;21.23;13.10;;;4.00;99.90;3.20;98565;;;;597622;236;24047;-78
2023/04/01 01:58:11;;;;;;;21.00;14.20;;;4.10;99.90;3.20;98567;;;;607160;236;24047;-78
2023/04/01 02:00:39;;;;;;;21.20;14.40;;;4.10;99.90;3.10;98555;;;;597249;236;24041;-78
2023/04/01 02:03:07;;;;;;;26.30;15.67;;;4.00;99.90;3.10;98565;;;;597443;236;24045;-77
2023/04/01 02:05:34;;;;;;;27.07;15.63;;;4.00;99.90;3.10;98561;;;;597538;236;24091;-78
2023/04/01 02:08:08;;;;;;;23.23;13.90;;;4.00;99.90;3.10;98563;;;;597427;236;24036;-79
2023/04/01 02:10:37;;;;;;;21.50;13.23;;;4.00;99.90;3.10;98560;;;;606632;236;24024;-81
2023/04/01 02:13:05;;;;;;;20.13;13.37;;;4.00;99.90;3.10;98571;;;;606576;236;24068;-81
2023/04/01 02:15:37;;;;;;;18.53;12.40;;;4.00;99.90;3.10;98566;;;;606606;236;24103;-81
2023/04/01 02:18:01;;;;;;;21.13;13.77;;;4.00;99.90;3.10;98564;;;;596521;236;24037;-78
2023/04/01 02:20:32;;;;;;;15.37;12.10;;;4.00;99.90;3.00;98563;;;;606889;233;24060;-80
2023/04/01 02:23:01;;;;;;;16.47;9.80;;;3.90;99.90;3.00;98568;;;;597021;236;24122;-78
2023/04/01 02:25:24;;;;;;;14.30;10.10;;;3.90;99.90;3.00;98573;;;;596809;236;24069;-82
2023/04/01 02:27:56;;;;;;;12.97;9.50;;;3.90;99.90;2.90;98576;;;;606603;236;24100;-78
2023/04/01 02:30:24;;;;;;;13.07;10.40;;;3.80;99.90;2.90;98569;;;;605889;232;24081;-78
2023/04/01 02:32:52;;;;;;;13.97;9.17;;;3.80;99.90;2.90;98569;;;;596284;236;24085;-78
2023/04/01 02:35:17;;;;;;;13.70;10.20;;;3.70;99.90;2.90;98574;;;;605526;236;24067;-77
2023/04/01 02:37:45;;;;;;;14.67;10.87;;;3.70;99.90;2.90;98578;;;;606147;236;24066;-78
2023/04/01 02:40:13;;;;;;;20.17;10.50;;;3.80;99.90;2.90;98571;;;;605985;233;24036;-78
2023/04/01 02:42:40;;;;;;;13.93;10.73;;;3.80;99.90;3.00;98577;;;;596611;236;24050;-78
2023/04/01 02:45:09;;;;;;;13.80;9.53;;;3.90;99.90;3.00;98577;;;;606056;236;24064;-77
2023/04/01 02:47:37;;;;;;;11.57;7.60;;;3.80;99.90;3.00;98578;;;;600595;236;45834;-77
2023/04/01 02:50:06;;;;;;;4.93;4.43;;;3.90;99.90;3.00;98573;;;;596578;236;25369;-77
2023/04/01 02:52:33;;;;;;;7.30;4.63;;;3.90;99.90;3.00;98583;;;;596540;236;24083;-77
2023/04/01 02:55:01;;;;;;;6.33;5.33;;;3.90;99.90;3.00;98582;;;;596660;236;24113;-77
2023/04/01 02:57:30;;;;;;;9.83;5.10;;;3.90;99.90;3.10;98586;;;;605955;236;24156;-79
2023/04/01 02:59:57;;;;;;;5.67;4.87;;;3.90;99.90;3.10;98583;;;;596400;236;24049;-78
2023/04/01 03:02:29;;;;;;;9.73;5.30;;;3.90;99.90;3.00;98582;;;;597205;234;24036;-76
2023/04/01 03:04:53;;;;;;;7.07;4.80;;;3.90;99.90;3.00;98586;;;;602323;236;24031;-78
2023/04/01 03:07:22;;;;;;;6.30;5.43;;;3.90;99.90;3.00;98598;;;;598001;236;24049;-78
2023/04/01 03:09:50;;;;;;;7.80;5.60;;;3.90;99.90;3.00;98587;;;;597751;236;24026;-78
2023/04/01 03:12:17;;;;;;;5.63;4.97;;;3.90;99.90;3.10;98595;;;;597543;236;24128;-78
2023/04/01 03:14:45;;;;;;;7.27;5.13;;;3.90;99.90;3.10;98593;;;;597533;236;24009;-77
2023/04/01 03:17:13;;;;;;;5.27;4.53;;;3.90;99.90;3.10;98600;;;;597480;236;24069;-79
2023/04/01 03:19:42;;;;;;;4.40;4.00;;;4.00;99.90;3.10;98596;;;;597521;236;24022;-78
2023/04/01 03:22:12;;;;;;;6.07;3.97;;;3.90;99.90;3.10;98598;;;;597167;236;24025;-79
2023/04/01 03:24:40;;;;;;;5.37;4.67;;;4.00;99.90;3.10;98598;;;;597253;236;24024;-78
2023/04/01 03:27:08;;;;;;;5.53;4.63;;;4.00;99.90;3.10;98600;;;;597241;236;24045;-78
2023/04/01 03:29:37;;;;;;;8.17;4.20;;;4.00;99.90;3.10;98599;;;;597207;236;24090;-78
2023/04/01 03:32:05;;;;;;;6.70;4.97;;;3.90;99.90;3.10;98608;;;;596857;236;24119;-76
2023/04/01 03:34:33;;;;;;;4.40;4.00;;;4.00;99.90;3.10;98601;;;;596806;236;24052;-77
2023/04/01 03:37:01;;;;;;;5.63;3.93;;;4.00;99.90;3.10;98606;;;;596983;236;24028;-76
2023/04/01 03:39:29;;;;;;;6.33;4.07;;;3.90;99.90;3.10;98602;;;;596674;236;24039;-78
2023/04/01 03:41:57;;;;;;;6.50;5.00;;;4.00;99.90;3.10;98606;;;;596639;236;24075;-78
2023/04/01 03:44:24;;;;;;;8.80;5.20;;;4.00;99.90;3.10;98604;;;;596588;236;24028;-77
2023/04/01 03:46:52;;;;;;;5.90;4.23;;;4.00;99.90;3.10;98603;;;;596456;236;24122;-78
2023/04/01 03:49:20;;;;;;;7.03;5.23;;;4.00;99.90;3.10;98607;;;;596606;236;24040;-82
2023/04/01 03:51:48;;;;;;;5.97;4.27;;;4.00;99.90;3.10;98611;;;;596435;236;24048;-78
2023/04/01 03:54:16;;;;;;;7.50;5.53;;;4.00;99.90;3.10;98613;;;;596594;236;24053;-76
2023/04/01 03:56:44;;;;;;;5.60;4.47;;;4.00;99.90;3.10;98615;;;;596408;236;24056;-78
2023/04/01 03:59:12;;;;;;;7.23;4.40;;;4.00;99.90;3.10;98614;;;;606168;236;24037;-77
2023/04/01 04:01:40;;;;;;;6.00;4.57;;;4.00;99.90;3.10;98613;;;;596521;236;24101;-77
2023/04/01 04:04:09;;;;;;;8.53;5.30;;;4.00;99.90;3.10;98621;;;;596941;236;24024;-77
2023/04/01 04:06:37;;;;;;;7.60;5.00;;;4.00;99.90;3.10;98613;;;;606203;236;24152;-77
2023/04/01 04:09:05;;;;;;;7.03;4.23;;;4.00;99.90;3.10;98619;;;;596925;236;24094;-77
2023/04/01 04:11:33;;;;;;;9.23;5.27;;;4.00;99.90;3.10;98626;;;;596998;236;24078;-78
2023/04/01 04:14:01;;;;;;;7.53;5.27;;;4.00;99.90;3.10;98623;;;;597241;234;24029;-76
2023/04/01 04:16:29;;;;;;;7.07;5.40;;;4.00;99.90;3.10;98623;;;;598465;236;24060;-77
2023/04/01 04:18:57;;;;;;;7.83;6.17;;;4.00;99.90;3.10;98621;;;;598004;236;24143;-77
2023/04/01 04:21:25;;;;;;;14.23;6.27;;;4.00;99.90;3.10;98632;;;;597780;236;24029;-78
2023/04/01 04:23:53;;;;;;;11.77;6.33;;;4.00;99.90;3.10;98633;;;;597662;236;24038;-77
2023/04/01 04:26:21;;;;;;;12.37;6.50;;;4.00;99.90;3.10;98624;;;;597498;236;24085;-77
2023/04/01 04:28:49;;;;;;;9.70;6.70;;;4.00;99.90;3.10;98624;;;;607034;236;24025;-77
2023/04/01 04:31:20;;;;;;;14.27;7.30;;;4.00;99.90;3.10;98625;;;;597475;236;24025;-78
2023/04/01 04:33:48;;;;;;;9.93;6.70;;;4.00;99.90;3.10;98624;;;;606242;236;24107;-77
2023/04/01 04:36:18;;;;;;;12.57;6.47;;;4.00;99.90;3.20;98620;;;;596967;236;24029;-79
2023/04/01 04:38:44;;;;;;;19.83;11.18;;;4.10;99.90;3.20;98622;;;;591527;236;35057;-78
2023/04/01 04:41:15;;;;;;;11.00;7.37;;;4.00;99.90;3.20;98638;;;;606420;233;24067;-78
2023/04/01 04:43:40;;;;;;;8.03;5.63;;;4.10;99.90;3.20;98637;;;;606942;232;24039;-80
2023/04/01 04:46:11;;;;;;;8.60;5.70;;;4.10;99.90;3.20;98637;;;;606702;236;24075;-79
2023/04/01 04:48:39;;;;;;;7.60;5.03;;;4.10;99.90;3.20;98633;;;;606369;233;25118;-80
2023/04/01 04:51:06;;;;;;;6.77;4.90;;;4.10;99.90;3.30;98634;;;;596556;236;24039;-78
2023/04/01 04:53:34;;;;;;;8.27;4.60;;;4.10;99.90;3.30;98637;;;;596675;236;24047;-77
2023/04/01 04:56:02;;;;;;;7.70;4.50;;;4.20;99.90;3.30;98632;;;;596513;236;24072;-81
2023/04/01 04:58:31;;;;;;;9.27;4.53;;;4.20;99.90;3.30;98638;;;;596637;236;24056;-83
2023/04/01 05:01:00;;;;;;;7.20;4.60;;;4.20;99.90;3.30;98638;;;;596581;236;24084;-82
2023/04/01 05:03:28;;;;;;;5.67;4.10;;;4.20;99.90;3.30;98636;;;;596157;236;24079;-81
2023/04/01 05:05:56;;;;;;;7.67;4.40;;;4.30;99.90;3.40;98646;;;;597020;236;24061;-83
2023/04/01 05:08:24;;;;;;;7.67;3.83;;;4.20;99.90;3.40;98644;;;;606458;236;24086;-84
2023/04/01 05:10:53;;;;;;;17.20;3.80;;;4.30;99.90;3.50;98653;;;;596971;236;24037;-83
2023/04/01 05:13:24;;;;;;;21.30;4.53;;;4.30;99.90;3.50;98649;;;;596996;236;24047;-82
2023/04/01 05:15:49;;;;;;;22.63;5.20;;;4.40;99.90;3.50;98653;;;;596637;236;24063;-81
2023/04/01 05:18:16;;;;;;;13.43;4.20;;;4.40;99.90;3.50;98659;;;;597052;236;24042;-82
2023/04/01 05:20:47;;;;;;;34.10;3.87;;;4.40;99.90;3.50;98668;;;;597084;236;24120;-83
2023/04/01 05:23:15;;;;;;;28.70;4.50;;;4.40;99.90;3.60;98663;;;;605982;236;24051;-80
2023/04/01 05:25:47;;;;;;;29.50;2.63;;;4.40;99.90;3.60;98654;;;;597519;234;24018;-80
2023/04/01 05:28:11;;;;;;;35.03;4.73;;;4.50;99.90;3.60;98657;;;;603258;236;24054;-79
2023/04/01 05:30:44;;;;;;;55.33;4.57;;;4.50;99.90;3.60;98664;;;;607432;236;25132;-78
2023/04/01 05:33:09;;;;;;;29.97;4.00;;;4.50;99.90;3.60;98665;;;;607213;236;24083;-79
2023/04/01 05:35:37;;;;;;;43.77;4.07;;;4.40;99.90;3.60;98665;;;;606690;236;24045;-78
2023/04/01 05:38:05;;;;;;;30.33;4.10;;;4.40;99.90;3.60;98670;;;;597038;236;24080;-77
2023/04/01 05:40:37;;;;;;;14.20;3.27;;;4.40;99.90;3.50;98663;;;;597164;236;24029;-78
2023/04/01 05:43:01;;;;;;;11.73;2.60;;;4.40;99.90;3.50;98665;;;;596529;236;24036;-77
2023/04/01 05:45:29;;;;;;;94.43;7.70;;;4.40;99.90;3.50;98677;;;;591815;236;35043;-78
2023/04/01 05:47:57;;;;;;;59.60;4.30;;;4.40;99.90;3.50;98673;;;;596948;236;24071;-78
2023/04/01 05:50:25;;;;;;;31.30;2.90;;;4.40;99.90;3.40;98668;;;;596772;233;24050;-78
2023/04/01 05:52:56;;;;;;;36.60;4.70;;;4.30;99.90;3.40;98681;;;;596875;236;24025;-80
2023/04/01 05:55:21;;;;;;;62.50;5.90;;;4.30;99.90;3.40;98678;;;;596582;236;24039;-77
2023/04/01 05:57:52;;;;;;;57.67;4.87;;;4.30;99.90;3.40;98684;;;;597007;236;24077;-78
2023/04/01 06:00:20;;;;;;;21.33;4.10;;;4.30;99.90;3.40;98691;;;;596408;236;24070;-77
2023/04/01 06:02:46;;;;;;;41.73;4.23;;;4.30;99.90;3.40;98688;;;;601703;234;24040;-77
2023/04/01 06:05:21;;;;;;;41.30;3.90;;;4.30;99.90;3.30;98682;;;;596489;236;24059;-76
2023/04/01 06:07:49;;;;;;;55.90;4.83;;;4.20;99.90;3.30;98700;;;;606503;236;24087;-78
2023/04/01 06:10:17;;;;;;;37.73;4.97;;;4.20;99.90;3.40;98703;;;;606485;236;24057;-79
2023/04/01 06:12:51;;;;;;;65.63;5.80;;;4.20;99.90;3.30;98699;;;;606012;233;24083;-80
2023/04/01 06:15:37;;;;;;;14.40;2.47;;;4.20;99.90;3.30;98698;;;;606405;236;24040;-77
2023/04/01 06:18:23;;;;;;;64.33;5.30;;;4.20;99.90;3.30;98709;;;;600841;236;24047;-79
2023/04/01 06:21:03;;;;;;;18.93;2.00;;;4.20;99.90;3.30;98724;;;;606227;236;25086;-77
2023/04/01 06:23:58;;;;;;;63.77;4.20;;;4.20;99.90;3.30;98705;;;;606015;236;24101;-77
2023/04/01 06:26:32;;;;;;;21.63;2.97;;;4.20;99.90;3.30;98719;;;;605170;236;24068;-80
2023/04/01 06:29:30;;;;;;;33.33;3.60;;;4.20;99.90;3.30;98730;;;;605777;236;25091;-76
2023/04/01 06:32:20;;;;;;;52.20;2.97;;;4.20;99.90;3.30;98714;;;;606512;236;24048;-78
2023/04/01 06:35:12;;;;;;;45.97;4.03;;;4.10;99.90;3.20;98725;;;;606402;236;24066;-77
2023/04/01 06:37:46;;;;;;;25.77;3.10;;;4.10;99.90;3.30;98720;;;;606899;235;24074;-77
2023/04/01 06:40:51;;;;;;;22.93;2.57;;;4.10;99.90;3.30;98727;;;;601770;236;24025;-77
2023/04/01 06:43:40;;;;;;;9.60;2.33;;;4.10;99.90;3.30;98745;;;;595290;237;24075;-77
2023/04/01 06:46:23;;;;;;;5.50;2.00;;;4.20;99.90;3.30;98758;;;;571852;247;24098;-76
2023/04/01 06:49:18;;;;;;;2.33;2.03;;;4.10;99.90;3.20;98759;;;;583108;241;24099;-76
2023/04/01 06:52:04;;;;;;;3.57;2.13;;;4.10;99.90;3.20;98757;;;;586532;241;24063;-76
2023/04/01 06:54:50;;;;;;;5.20;2.13;;;4.10;99.90;3.20;98756;;;;586056;241;24091;-76
2023/04/01 06:57:36;;;;;;;2.63;1.90;;;4.10;99.90;3.20;98761;;;;585328;241;24070;-77
2023/04/01 07:00:04;;;;;;;2.37;2.17;;;4.10;99.90;3.20;98767;;;;596104;237;24423;-76
2023/04/01 07:02:44;;;;;;;2.13;1.97;;;4.00;99.90;3.20;98758;;;;599743;239;24074;-76
2023/04/01 07:05:15;;;;;;;4.60;2.90;;;4.00;99.90;3.20;98777;;;;584793;241;24059;-77
2023/04/01 07:07:43;;;;;;;2.10;1.70;;;4.00;99.90;3.30;98765;;;;585733;241;24069;-78
2023/04/01 07:10:48;;;;;;;1.83;1.73;;;4.10;99.90;3.30;98769;;;;595456;239;35014;-77
2023/04/01 07:13:25;;;;;;;1.97;1.17;;;4.20;99.90;3.30;98779;;;;591440;239;24042;-77
2023/04/01 07:16:11;;;;;;;1.37;1.27;;;4.20;99.90;3.30;98792;;;;591054;239;24090;-81
2023/04/01 07:18:45;;;;;;;5.20;1.53;;;4.20;99.90;3.30;98787;;;;591296;239;24051;-77
2023/04/01 07:21:13;;;;;;;0.80;0.77;;;4.20;99.90;3.30;98785;;;;589156;239;24057;-78
2023/04/01 07:23:40;;;;;;;1.30;1.20;;;4.20;99.90;3.30;98793;;;;589798;239;25082;-77
2023/04/01 07:26:21;;;;;;;1.17;1.07;;;4.20;99.90;3.30;98797;;;;590962;239;24043;-79
2023/04/01 07:28:50;;;;;;;1.67;0.93;;;4.20;99.90;3.30;98785;;;;590672;239;24039;-78
2023/04/01 07:31:42;;;;;;;2.37;1.80;;;4.20;99.90;3.40;98795;;;;591081;239;24093;-78
2023/04/01 07:34:31;;;;;;;2.20;1.00;;;4.30;99.90;3.40;98804;;;;588955;239;24051;-78
2023/04/01 07:37:13;;;;;;;2.53;1.27;;;4.30;99.90;3.40;98804;;;;599832;239;24050;-79
2023/04/01 07:39:56;;;;;;;0.83;0.83;;;4.30;99.90;3.40;98812;;;;588285;239;24083;-78
2023/04/01 07:42:33;;;;;;;2.83;1.10;;;4.30;99.90;3.40;98810;;;;588900;239;24060;-80
2023/04/01 07:45:04;;;;;;;1.90;1.30;;;4.30;99.90;3.40;98808;;;;582795;239;24145;-79
2023/04/01 07:48:17;;;;;;;2.83;1.67;;;4.30;99.90;3.40;98818;;;;600083;237;24176;-78
2023/04/01 07:51:03;;;;;;;1.70;1.50;;;4.30;99.90;3.40;98813;;;;601646;237;24037;-79
2023/04/01 07:53:46;;;;;;;1.93;1.30;;;4.30;99.90;3.40;98811;;;;585363;239;24074;-82
2023/04/01 07:56:45;;;;;;;1.10;1.10;;;4.30;99.90;3.40;98825;;;;606482;236;24037;-77
2023/04/01 07:59:28;;;;;;;2.27;1.40;;;4.30;99.90;3.40;98829;;;;586507;241;24119;-79
2023/04/01 08:02:17;;;;;;;1.10;1.10;;;4.20;99.90;3.30;98823;;;;583248;241;24165;-77
2023/04/01 08:05:25;;;;;;;1.77;1.67;;;4.20;99.90;3.30;98826;;;;586309;241;24079;-78
2023/04/01 08:08:17;;;;;;;1.43;1.13;;;4.20;99.90;3.30;98826;;;;593171;238;24058;-79
2023/04/01 08:10:47;;;;;;;1.47;1.37;;;4.20;99.90;3.30;98825;;;;602557;238;24149;-80
2023/04/01 08:13:38;;;;;;;1.27;1.20;;;4.20;99.90;3.30;98829;;;;606438;236;24105;-78
2023/04/01 08:16:31;;;;;;;1.90;1.80;;;4.20;99.90;3.30;98834;;;;601470;239;24047;-79
2023/04/01 08:19:02;;;;;;;1.57;1.47;;;4.10;99.90;3.30;98846;;;;591520;238;24035;-80
2023/04/01 08:21:32;;;;;;;1.63;1.53;;;4.20;99.90;3.30;98839;;;;600245;239;24027;-80
2023/04/01 08:24:00;;;;;;;1.60;1.50;;;4.20;99.90;3.30;98843;;;;587337;239;24044;-78
2023/04/01 08:26:31;;;;;;;1.83;1.60;;;4.20;99.90;3.30;98855;;;;599852;239;24089;-79
2023/04/01 08:29:17;;;;;;;6.57;1.57;;;4.20;99.90;3.30;98847;;;;600081;234;24057;-81
2023/04/01 08:32:07;;;;;;;1.47;1.37;;;4.20;99.90;3.30;98856;;;;588670;239;24036;-77
2023/04/01 08:34:41;;;;;;;0.80;0.80;;;4.10;99.90;3.30;98861;;;;585108;241;24080;-79
2023/04/01 08:37:23;;;;;;;1.80;1.53;;;4.10;99.90;3.30;98865;;;;585486;241;24075;-79
2023/04/01 08:39:52;;;;;;;4.13;1.67;;;4.10;99.90;3.30;98872;;;;591795;239;24090;-78
2023/04/01 08:43:00;;;;;;;1.40;1.30;;;4.10;99.90;3.30;98860;;;;595341;236;24080;-81
2023/04/01 08:46:05;;;;;;;2.70;1.10;;;4.20;99.90;3.30;98864;;;;596948;236;24032;-78
2023/04/01 08:49:00;;;;;;;3.50;1.47;;;4.20;99.90;3.40;98868;;;;596824;236;24048;-80
2023/04/01 08:51:49;;;;;;;2.27;1.70;;;4.20;99.90;3.40;98871;;;;596418;236;24039;-83
2023/04/01 08:54:29;;;;;;;1.60;1.50;;;4.30;99.90;3.40;98872;;;;596982;236;24098;-77
2023/04/01 08:57:13;;;;;;;1.83;1.73;;;4.20;99.90;3.30;98874;;;;604201;236;24026;-80
2023/04/01 09:00:13;;;;;;;2.43;2.23;;;4.20;99.90;3.30;98878;;;;600693;236;24078;-78
2023/04/01 09:03:04;;;;;;;1.80;1.30;;;4.20;99.90;3.30;98888;;;;598515;236;24026;-78
2023/04/01 09:05:44;;;;;;;1.63;1.53;;;4.20;99.90;3.30;98882;;;;594045;236;24034;-79
2023/04/01 09:08:32;;;;;;;1.80;1.70;;;4.10;99.90;3.30;98885;;;;606085;236;24088;-82
2023/04/01 09:11:23;;;;;;;1.57;1.37;;;4.10;99.90;3.30;98888;;;;584136;245;24140;-79
2023/04/01 09:14:12;;;;;;;2.80;1.77;;;4.10;99.90;3.30;98894;;;;593377;236;24033;-82
2023/04/01 09:17:10;;;;;;;4.30;1.90;;;4.10;99.90;3.30;98896;;;;586953;237;24064;-78
2023/04/01 09:19:50;;;;;;;1.37;1.30;;;4.10;99.90;3.30;98905;;;;591158;239;24065;-81
2023/04/01 09:22:25;;;;;;;2.37;1.37;;;4.10;99.90;3.30;98908;;;;588336;239;24070;-78
2023/04/01 09:25:32;;;;;;;0.97;0.97;;;4.10;99.90;3.30;98907;;;;588237;239;24064;-81
2023/04/01 09:28:34;;;;;;;3.60;1.03;;;4.20;99.90;3.40;98913;;;;600810;237;24088;-80
2023/04/01 09:31:22;;;;;;;1.00;1.00;;;4.20;99.90;3.40;98908;;;;591411;239;24098;-79
2023/04/01 09:34:08;;;;;;;0.70;0.70;;;4.30;99.90;3.60;98924;;;;591047;239;24031;-80
2023/04/01 09:37:00;;;;;;;1.37;0.87;;;4.40;99.90;3.70;98925;;;;590988;239;24047;-80
2023/04/01 09:39:37;;;;;;;0.77;0.77;;;4.50;99.90;3.80;98925;;;;599622;238;24044;-80
2023/04/01 09:42:27;;;;;;;5.50;1.10;;;4.60;99.90;3.80;98930;;;;599825;239;24048;-81
2023/04/01 09:44:58;;;;;;;3.93;1.67;;;4.60;99.90;3.90;98938;;;;590731;239;24074;-79
2023/04/01 09:47:44;;;;;;;2.67;1.37;;;4.70;99.90;3.80;98940;;;;590349;239;24103;-80
2023/04/01 09:50:30;;;;;;;1.20;1.20;;;4.60;99.90;3.80;98956;;;;590769;240;24101;-79
2023/04/01 09:53:29;;;;;;;2.80;1.90;;;4.60;99.90;3.70;98949;;;;595538;237;24121;-78
2023/04/01 09:56:39;;;;;;;5.13;1.70;;;4.60;99.90;3.70;98936;;;;577928;241;24066;-80
2023/04/01 09:59:48;;;;;;;0.93;0.93;;;4.50;99.90;3.60;98950;;;;594009;236;24136;-80
2023/04/01 10:03:06;;;;;;;1.17;1.07;;;4.40;99.90;3.60;98970;;;;605825;236;24054;-79
2023/04/01 10:06:11;;;;;;;1.67;1.00;;;4.40;99.90;3.50;98958;;;;605758;236;24048;-79
2023/04/01 10:08:52;;;;;;;0.67;0.67;;;4.40;99.90;3.40;98956;;;;596282;236;24108;-79
2023/04/01 10:11:25;;;;;;;1.27;1.13;;;4.30;99.90;3.30;98970;;;;606047;236;24131;-76
2023/04/01 10:14:25;;;;;;;1.03;1.03;;;4.20;99.90;3.30;98971;;;;602334;236;24086;-79
2023/04/01 10:17:11;;;;;;;1.17;1.07;;;4.20;99.90;3.30;98974;;;;607384;235;24042;-81
2023/04/01 10:19:51;;;;;;;0.60;0.60;;;4.10;99.90;3.30;98977;;;;607148;235;24025;-77
2023/04/01 10:22:55;;;;;;;1.00;1.00;;;4.20;99.90;3.40;98975;;;;601544;236;24135;-78
2023/04/01 10:25:31;;;;;;;1.60;1.50;;;4.20;99.90;3.40;98986;;;;585433;236;24096;-78
2023/04/01 10:28:17;;;;;;;6.50;3.50;;;4.20;99.90;3.50;98983;;;;597292;236;24026;-77
2023/04/01 10:31:00;;;;;;;1.47;1.37;;;4.30;99.90;3.40;98977;;;;597278;236;24033;-78
2023/04/01 10:33:55;;;;;;;4.33;1.33;;;4.30;99.90;3.40;98982;;;;600337;236;24101;-79
2023/04/01 10:36:35;;;;;;;2.10;1.60;;;4.20;99.90;3.30;98985;;;;601114;236;24041;-78
2023/04/01 10:39:27;;;;;;;0.90;0.90;;;4.20;99.90;3.30;98990;;;;596509;236;24169;-81
2023/04/01 10:41:57;;;;;;;2.20;1.83;;;4.10;99.90;3.20;99003;;;;585696;241;24161;-80
2023/04/01 10:44:38;;;;;;;1.57;1.47;;;4.00;99.90;3.20;98992;;;;589764;239;24090;-80
2023/04/01 10:47:33;;;;;;;1.40;1.40;;;4.00;99.90;3.20;99004;;;;593930;241;24106;-81
2023/04/01 10:50:32;;;;;;;1.50;1.40;;;4.00;99.90;3.20;99008;;;;585024;241;24060;-80
2023/04/01 10:53:17;;;;;;;0.63;0.63;;;4.00;99.90;3.20;99012;;;;596857;236;24041;-80
2023/04/01 10:56:28;;;;;;;8.53;2.13;;;4.00;99.90;3.20;99005;;;;605254;236;24095;-79
2023/04/01 10:59:33;;;;;;;0.73;0.73;;;4.00;99.90;3.40;99019;;;;596365;236;24083;-78
2023/04/01 11:02:10;;;;;;;2.07;1.17;;;4.20;99.90;3.40;99013;;;;606383;233;24108;-79
2023/04/01 11:04:59;;;;;;;2.13;1.23;;;4.20;99.90;3.40;99025;;;;600464;236;24084;-78
2023/04/01 11:07:57;;;;;;;3.17;1.93;;;4.20;99.90;3.40;99020;;;;584258;241;24102;-77
2023/04/01 11:10:47;;;;;;;1.60;1.50;;;4.20;99.90;3.50;99026;;;;596937;236;24084;-79
2023/04/01 11:13:42;;;;;;;1.37;1.27;;;4.30;99.90;3.60;99020;;;;596766;236;24054;-78
2023/04/01 11:16:29;;;;;;;2.67;1.33;;;4.40;99.90;3.50;99041;;;;600736;236;24034;-78
2023/04/01 11:19:08;;;;;;;0.80;0.80;;;4.30;99.90;3.40;99029;;;;605767;236;24043;-78
2023/04/01 11:22:00;;;;;;;1.27;1.10;;;4.30;99.90;3.30;99036;;;;605304;236;24057;-79
2023/04/01 11:24:38;;;;;;;1.07;1.07;;;4.10;99.90;3.20;99038;;;;605959;235;24160;-78
2023/04/01 11:27:09;;;;;;;3.23;2.10;;;4.10;99.90;3.20;99037;;;;601710;234;24076;-76
2023/04/01 11:30:13;;;;;;;2.00;0.93;;;4.00;99.90;3.30;99056;;;;606109;236;24056;-78
2023/04/01 11:33:12;;;;;;;1.80;1.37;;;4.10;99.90;3.20;99056;;;;604723;237;24040;-76
2023/04/01 11:36:32;;;;;;;1.27;1.27;;;4.00;99.90;3.10;99050;;;;597026;236;24064;-77
2023/04/01 11:39:21;;;;;;;9.57;2.60;;;4.00;99.90;3.10;99052;;;;597059;236;24084;-78
2023/04/01 11:42:04;;;;;;;2.70;2.50;;;3.90;99.90;3.10;99053;;;;607432;232;24054;-77
2023/04/01 11:44:35;;;;;;;2.63;2.00;;;3.90;99.90;3.00;99066;;;;607153;232;24091;-78
2023/04/01 11:47:22;;;;;;;1.83;1.73;;;3.80;99.90;3.00;99058;;;;596196;236;24053;-77
2023/04/01 11:49:58;;;;;;;2.83;2.37;;;3.80;99.90;3.00;99057;;;;596809;236;24031;-77
2023/04/01 11:52:41;;;;;;;2.73;2.20;;;3.80;99.90;3.10;99062;;;;605770;233;24071;-78
2023/04/01 11:55:30;;;;;;;1.73;1.63;;;3.90;99.90;3.10;99070;;;;596706;236;24033;-79
2023/04/01 11:58:07;;;;;;;2.43;1.83;;;3.90;99.90;3.10;99059;;;;596505;236;24110;-79
2023/04/01 12:01:15;;;;;;;3.20;2.57;;;3.90;99.90;3.10;99060;;;;594684;236;24032;-78
2023/04/01 12:04:01;;;;;;;5.20;2.47;;;3.90;99.90;3.10;99068;;;;596748;236;24054;-76
2023/04/01 12:06:53;;;;;;;2.93;2.73;;;3.90;99.90;3.10;99065;;;;600294;236;24053;-77
2023/04/01 12:09:33;;;;;;;2.30;2.10;;;3.90;99.90;3.20;99078;;;;606473;236;25101;-77
2023/04/01 12:12:50;;;;;;;2.93;2.23;;;4.00;99.90;3.20;99073;;;;596006;236;24070;-80
2023/04/01 12:15:27;;;;;;;4.23;3.10;;;4.00;99.90;3.20;99087;;;;605846;233;25079;-78
2023/04/01 12:18:19;;;;;;;7.73;4.10;;;4.00;99.90;3.10;99075;;;;586860;236;24065;-77